Time,TemperatureF,DewpointF,PressureIn,WindDirection,WindDirectionDegrees,WindSpeedMPH,WindSpeedGustMPH,Humidity,HourlyPrecipIn,Conditions,Clouds,dailyrainin,SoftwareType,DateUTC
2013-10-09 00:01:00,60.5,45.2,30.25,NNW,338,7.6,10.1,57,0.00,,,0.00,WUHU216HW,2013-10-09 04:01:00,
2013-10-09 00:02:00,60.5,45.2,30.26,NNW,338,7.6,10.1,57,0.00,,,0.00,WUHU216HW,2013-10-09 04:02:00,
2013-10-09 00:03:00,60.5,45.6,30.25,North,353,5.4,10.1,58,0.00,,,0.00,WUHU216HW,2013-10-09 04:03:00,
2013-10-09 00:08:00,60.5,45.6,30.25,NE,45,6.3,10.1,58,0.00,,,0.00,WUHU216HW,2013-10-09 04:08:00,
2013-10-09 00:13:00,60.3,45.5,30.25,NNE,27,4.5,9.2,58,0.00,,,0.00,WUHU216HW,2013-10-09 04:13:00,
2013-10-09 00:18:00,60.1,45.3,30.25,NE,45,5.4,9.2,58,0.00,,,0.00,WUHU216HW,2013-10-09 04:18:00,
2013-10-09 00:23:00,60.1,45.3,30.25,NNE,15,5.9,7.2,58,0.00,,,0.00,WUHU216HW,2013-10-09 04:23:00,
2013-10-09 00:28:00,60.1,45.3,30.25,NNE,23,3.8,8.1,58,0.00,,,0.00,WUHU216HW,2013-10-09 04:28:00,
2013-10-09 00:33:00,59.9,45.6,30.25,North,0,1.6,8.1,59,0.00,,,0.00,WUHU216HW,2013-10-09 04:33:00,
2013-10-09 00:39:00,59.8,45.5,30.25,NNE,23,5.1,5.1,59,0.00,,,0.00,WUHU216HW,2013-10-09 04:39:00,
2013-10-09 00:44:00,59.8,45.5,30.25,ENE,68,2.5,5.1,59,0.00,,,0.00,WUHU216HW,2013-10-09 04:44:00,
2013-10-09 00:49:00,59.6,45.3,30.25,SE,135,1.1,5.1,59,0.00,,,0.00,WUHU216HW,2013-10-09 04:49:00,
2013-10-09 00:54:00,59.4,45.1,30.25,SE,135,6.5,7.4,59,0.00,,,0.00,WUHU216HW,2013-10-09 04:54:00,
2013-10-09 00:59:00,59.0,45.2,30.24,NNE,30,3.1,7.4,60,0.00,,,0.00,WUHU216HW,2013-10-09 04:59:00,
2013-10-09 01:04:00,58.7,44.4,30.24,NNW,338,2.2,6.5,59,0.00,,,0.00,WUHU216HW,2013-10-09 05:04:00,
2013-10-09 01:09:00,58.5,44.2,30.24,NNE,24,3.8,6.3,59,0.00,,,0.00,WUHU216HW,2013-10-09 05:09:00,
2013-10-09 01:14:00,58.1,43.9,30.24,NE,45,4.7,6.3,59,0.00,,,0.00,WUHU216HW,2013-10-09 05:14:00,
2013-10-09 01:19:00,58.0,44.2,30.24,NNE,28,3.7,5.4,60,0.00,,,0.00,WUHU216HW,2013-10-09 05:19:00,
2013-10-09 01:25:00,58.0,44.2,30.24,NNE,12,2.8,4.7,60,0.00,,,0.00,WUHU216HW,2013-10-09 05:25:00,
2013-10-09 01:30:00,57.8,44.0,30.25,ESE,113,1.8,4.7,60,0.00,,,0.00,WUHU216HW,2013-10-09 05:30:00,
2013-10-09 01:35:00,57.6,43.9,30.25,NE,45,1.3,4.0,60,0.00,,,0.00,WUHU216HW,2013-10-09 05:35:00,
2013-10-09 01:40:00,57.6,43.9,30.25,ENE,68,0.9,3.1,60,0.00,,,0.00,WUHU216HW,2013-10-09 05:40:00,
2013-10-09 01:45:00,57.4,44.1,30.25,North,0,3.6,4.5,61,0.00,,,0.00,WUHU216HW,2013-10-09 05:45:00,
2013-10-09 01:50:00,57.4,44.1,30.25,NNE,23,5.4,5.4,61,0.00,,,0.00,WUHU216HW,2013-10-09 05:50:00,
2013-10-09 01:55:00,57.2,43.9,30.25,NE,45,1.1,5.4,61,0.00,,,0.00,WUHU216HW,2013-10-09 05:55:00,
2013-10-09 02:00:00,57.1,43.7,30.25,NNW,338,4.0,5.4,61,0.00,,,0.00,WUHU216HW,2013-10-09 06:00:00,
2013-10-09 02:05:00,56.9,43.6,30.25,NE,45,3.1,4.0,61,0.00,,,0.00,WUHU216HW,2013-10-09 06:05:00,
2013-10-09 02:11:00,56.7,43.4,30.25,NE,51,3.5,6.5,61,0.00,,,0.00,WUHU216HW,2013-10-09 06:11:00,
2013-10-09 02:16:00,56.5,43.2,30.25,NE,45,3.6,6.5,61,0.00,,,0.00,WUHU216HW,2013-10-09 06:16:00,
2013-10-09 02:21:00,56.3,43.5,30.25,North,0,4.7,4.7,62,0.00,,,0.00,WUHU216HW,2013-10-09 06:21:00,
2013-10-09 02:26:00,56.2,43.3,30.25,North,0,3.6,5.4,62,0.00,,,0.00,WUHU216HW,2013-10-09 06:26:00,
2013-10-09 02:31:00,56.0,43.1,30.25,NE,45,3.4,5.4,62,0.00,,,0.00,WUHU216HW,2013-10-09 06:31:00,
2013-10-09 02:36:00,55.8,42.9,30.25,North,0,4.5,4.5,62,0.00,,,0.00,WUHU216HW,2013-10-09 06:36:00,
2013-10-09 02:41:00,55.6,42.8,30.25,ENE,68,1.3,4.7,62,0.00,,,0.00,WUHU216HW,2013-10-09 06:41:00,
2013-10-09 02:46:00,55.4,43.0,30.25,NNE,23,3.4,6.3,63,0.00,,,0.00,WUHU216HW,2013-10-09 06:46:00,
2013-10-09 02:51:00,55.4,43.0,30.25,NNE,23,4.3,6.3,63,0.00,,,0.00,WUHU216HW,2013-10-09 06:51:00,
2013-10-09 02:57:00,55.1,42.7,30.25,NNE,28,1.3,4.9,63,0.00,,,0.00,WUHU216HW,2013-10-09 06:57:00,
2013-10-09 03:02:00,54.9,42.5,30.24,East,90,2.5,4.9,63,0.00,,,0.00,WUHU216HW,2013-10-09 07:02:00,
2013-10-09 03:07:00,54.7,42.3,30.24,North,0,7.8,7.8,63,0.00,,,0.00,WUHU216HW,2013-10-09 07:07:00,
2013-10-09 03:12:00,54.9,42.5,30.24,NE,45,4.0,7.8,63,0.00,,,0.00,WUHU216HW,2013-10-09 07:12:00,
2013-10-09 03:17:00,54.7,42.3,30.24,West,270,2.6,7.8,63,0.00,,,0.00,WUHU216HW,2013-10-09 07:17:00,
2013-10-09 03:22:00,54.5,42.2,30.24,NW,315,0.9,4.0,63,0.00,,,0.00,WUHU216HW,2013-10-09 07:22:00,
2013-10-09 03:27:00,54.2,41.9,30.24,NNE,23,3.1,3.1,63,0.00,,,0.00,WUHU216HW,2013-10-09 07:27:00,
2013-10-09 03:32:00,54.0,41.7,30.24,NNE,15,1.6,5.6,63,0.00,,,0.00,WUHU216HW,2013-10-09 07:32:00,
2013-10-09 03:37:00,54.0,41.7,30.24,North,0,1.6,5.6,63,0.00,,,0.00,WUHU216HW,2013-10-09 07:37:00,
2013-10-09 03:42:00,54.0,41.7,30.24,West,270,2.5,4.0,63,0.00,,,0.00,WUHU216HW,2013-10-09 07:42:00,
2013-10-09 03:48:00,54.0,41.7,30.24,ENE,64,1.5,4.0,63,0.00,,,0.00,WUHU216HW,2013-10-09 07:48:00,
2013-10-09 03:53:00,53.8,41.5,30.25,NNW,338,2.2,2.5,63,0.00,,,0.00,WUHU216HW,2013-10-09 07:53:00,
2013-10-09 03:58:00,53.8,41.5,30.25,North,0,4.7,4.7,63,0.00,,,0.00,WUHU216HW,2013-10-09 07:58:00,
2013-10-09 04:03:00,53.6,41.3,30.25,ENE,68,2.0,4.7,63,0.00,,,0.00,WUHU216HW,2013-10-09 08:03:00,
2013-10-09 04:08:00,53.6,41.3,30.25,NE,45,1.1,4.7,63,0.00,,,0.00,WUHU216HW,2013-10-09 08:08:00,
2013-10-09 04:13:00,53.5,41.1,30.25,NE,45,2.5,2.9,63,0.00,,,0.00,WUHU216HW,2013-10-09 08:13:00,
2013-10-09 04:18:00,53.3,41.0,30.25,North,1,3.0,6.3,63,0.00,,,0.00,WUHU216HW,2013-10-09 08:18:00,
2013-10-09 04:23:00,53.3,41.0,30.25,NNE,23,1.1,6.3,63,0.00,,,0.00,WUHU216HW,2013-10-09 08:23:00,
2013-10-09 04:28:00,53.1,40.8,30.25,NNE,23,1.1,3.6,63,0.00,,,0.00,WUHU216HW,2013-10-09 08:28:00,
2013-10-09 04:33:00,52.9,40.6,30.25,ENE,68,0.4,1.3,63,0.00,,,0.00,WUHU216HW,2013-10-09 08:33:00,
2013-10-09 04:39:00,52.9,40.6,30.25,NE,45,3.6,3.6,63,0.00,,,0.00,WUHU216HW,2013-10-09 08:39:00,
2013-10-09 04:44:00,52.9,40.6,30.25,NNE,33,2.5,3.6,63,0.00,,,0.00,WUHU216HW,2013-10-09 08:44:00,
2013-10-09 04:49:00,52.7,40.4,30.25,NE,45,0.4,3.6,63,0.00,,,0.00,WUHU216HW,2013-10-09 08:49:00,
2013-10-09 04:54:00,52.7,40.4,30.25,West,270,0.4,2.2,63,0.00,,,0.00,WUHU216HW,2013-10-09 08:54:00,
2013-10-09 04:59:00,52.4,39.7,30.25,North,2,2.7,3.6,62,0.00,,,0.00,WUHU216HW,2013-10-09 08:59:00,
2013-10-09 05:04:00,52.2,39.5,30.25,NE,45,0.9,3.6,62,0.00,,,0.00,WUHU216HW,2013-10-09 09:04:00,
2013-10-09 05:09:00,52.0,39.3,30.25,NNE,23,0.4,1.8,62,0.00,,,0.00,WUHU216HW,2013-10-09 09:09:00,
2013-10-09 05:14:00,51.8,39.2,30.25,ENE,68,1.8,1.8,62,0.00,,,0.00,WUHU216HW,2013-10-09 09:14:00,
2013-10-09 05:19:00,51.7,39.0,30.25,North,0,0.0,1.8,62,0.00,,,0.00,WUHU216HW,2013-10-09 09:19:00,
2013-10-09 05:24:00,51.5,38.4,30.26,NNW,347,0.6,1.8,61,0.00,,,0.00,WUHU216HW,2013-10-09 09:24:00,
2013-10-09 05:29:00,51.5,38.4,30.26,North,355,1.2,3.1,61,0.00,,,0.00,WUHU216HW,2013-10-09 09:29:00,
2013-10-09 05:34:00,51.5,37.5,30.26,NNE,23,2.7,3.1,59,0.00,,,0.00,WUHU216HW,2013-10-09 09:34:00,
2013-10-09 05:40:00,51.3,37.9,30.26,NNE,33,1.5,2.9,60,0.00,,,0.00,WUHU216HW,2013-10-09 09:40:00,
2013-10-09 05:45:00,51.3,37.5,30.25,North,358,0.9,2.9,59,0.00,,,0.00,WUHU216HW,2013-10-09 09:45:00,
2013-10-09 05:50:00,51.3,37.0,30.26,South,180,0.4,3.8,58,0.00,,,0.00,WUHU216HW,2013-10-09 09:50:00,
2013-10-09 05:55:00,51.1,36.8,30.26,SSE,167,0.9,3.8,58,0.00,,,0.00,WUHU216HW,2013-10-09 09:55:00,
2013-10-09 06:00:00,51.1,35.5,30.26,North,0,3.8,3.8,55,0.00,,,0.00,WUHU216HW,2013-10-09 10:00:00,
2013-10-09 06:05:00,51.3,35.7,30.26,NE,45,1.8,3.8,55,0.00,,,0.00,WUHU216HW,2013-10-09 10:05:00,
2013-10-09 06:10:00,51.1,36.8,30.26,WNW,293,0.7,3.6,58,0.00,,,0.00,WUHU216HW,2013-10-09 10:10:00,
2013-10-09 06:15:00,51.1,36.4,30.25,North,0,2.2,3.6,57,0.00,,,0.00,WUHU216HW,2013-10-09 10:15:00,
2013-10-09 06:20:00,51.3,36.1,30.25,North,9,0.5,4.0,56,0.00,,,0.00,WUHU216HW,2013-10-09 10:20:00,
2013-10-09 06:25:00,51.3,35.7,30.25,ENE,68,2.7,4.0,55,0.00,,,0.00,WUHU216HW,2013-10-09 10:25:00,
2013-10-09 06:30:00,51.1,35.9,30.26,NNW,338,1.8,3.1,56,0.00,,,0.00,WUHU216HW,2013-10-09 10:30:00,
2013-10-09 06:35:00,51.1,35.5,30.26,NE,37,1.6,2.7,55,0.00,,,0.00,WUHU216HW,2013-10-09 10:35:00,
2013-10-09 06:41:00,51.1,35.5,30.25,NNW,338,1.1,1.8,55,0.00,,,0.00,WUHU216HW,2013-10-09 10:41:00,
2013-10-09 06:46:00,51.1,34.1,30.26,NE,45,1.8,2.7,52,0.00,,,0.00,WUHU216HW,2013-10-09 10:46:00,
2013-10-09 06:51:00,51.1,35.5,30.26,NNW,340,1.2,2.7,55,0.00,,,0.00,WUHU216HW,2013-10-09 10:51:00,
2013-10-09 06:56:00,51.1,35.5,30.26,NNE,24,1.2,2.9,55,0.00,,,0.00,WUHU216HW,2013-10-09 10:56:00,
2013-10-09 07:01:00,51.1,34.6,30.26,NNE,14,2.4,4.7,53,0.00,,,0.00,WUHU216HW,2013-10-09 11:01:00,
2013-10-09 07:06:00,51.1,35.5,30.26,SW,225,0.4,4.7,55,0.00,,,0.00,WUHU216HW,2013-10-09 11:06:00,
2013-10-09 07:11:00,51.1,34.6,30.26,North,358,2.4,2.9,53,0.00,,,0.00,WUHU216HW,2013-10-09 11:11:00,
2013-10-09 07:16:00,51.1,34.6,30.26,NE,45,1.1,3.4,53,0.00,,,0.00,WUHU216HW,2013-10-09 11:16:00,
2013-10-09 07:21:00,51.1,35.0,30.26,North,354,1.2,3.4,54,0.00,,,0.00,WUHU216HW,2013-10-09 11:21:00,
2013-10-09 07:26:00,51.1,34.6,30.26,North,0,0.4,2.7,53,0.00,,,0.00,WUHU216HW,2013-10-09 11:26:00,
2013-10-09 07:31:00,50.9,33.0,30.26,North,0,2.7,2.7,50,0.00,,,0.00,WUHU216HW,2013-10-09 11:31:00,
2013-10-09 07:37:00,50.8,34.2,30.26,ESE,113,0.9,2.7,53,0.00,,,0.00,WUHU216HW,2013-10-09 11:37:00,
2013-10-09 07:42:00,50.8,34.2,30.26,NNE,26,1.2,1.3,53,0.00,,,0.00,WUHU216HW,2013-10-09 11:42:00,
2013-10-09 07:47:00,50.8,34.2,30.26,SSW,203,0.4,1.3,53,0.00,,,0.00,WUHU216HW,2013-10-09 11:47:00,
2013-10-09 07:52:00,50.8,33.3,30.26,NNW,339,1.6,2.5,51,0.00,,,0.00,WUHU216HW,2013-10-09 11:52:00,
2013-10-09 07:57:00,50.8,32.9,30.27,NNW,338,2.9,3.4,50,0.00,,,0.00,WUHU216HW,2013-10-09 11:57:00,
2013-10-09 08:02:00,50.8,33.8,30.27,WSW,248,0.9,3.4,52,0.00,,,0.00,WUHU216HW,2013-10-09 12:02:00,
2013-10-09 08:03:00,50.9,32.5,30.27,West,261,0.9,3.4,49,0.00,,,0.00,WUHU216HW,2013-10-09 12:03:00,
2013-10-09 08:08:00,51.1,32.0,30.27,NE,45,2.5,2.5,48,0.00,,,0.00,WUHU216HW,2013-10-09 12:08:00,
2013-10-09 08:13:00,51.3,32.8,30.27,North,0,3.6,4.9,49,0.00,,,0.00,WUHU216HW,2013-10-09 12:13:00,
2013-10-09 08:18:00,51.8,33.8,30.26,North,359,3.0,6.0,50,0.00,,,0.00,WUHU216HW,2013-10-09 12:18:00,
2013-10-09 08:23:00,52.2,35.1,30.27,NNE,23,3.8,6.0,52,0.00,,,0.00,WUHU216HW,2013-10-09 12:23:00,
2013-10-09 08:29:00,52.2,35.6,30.27,NNE,23,3.1,4.7,53,0.00,,,0.00,WUHU216HW,2013-10-09 12:29:00,
2013-10-09 08:34:00,52.6,35.8,30.27,North,0,2.5,4.7,53,0.00,,,0.00,WUHU216HW,2013-10-09 12:34:00,
2013-10-09 08:39:00,53.1,37.3,30.28,NE,45,2.5,3.1,55,0.00,,,0.00,WUHU216HW,2013-10-09 12:39:00,
2013-10-09 08:44:00,53.3,37.4,30.28,NNE,23,1.8,3.1,55,0.00,,,0.00,WUHU216HW,2013-10-09 12:44:00,
2013-10-09 08:49:00,53.8,38.4,30.28,NNE,23,1.1,3.1,56,0.00,,,0.00,WUHU216HW,2013-10-09 12:49:00,
2013-10-09 08:54:00,54.4,39.4,30.28,NE,37,2.5,4.0,57,0.00,,,0.00,WUHU216HW,2013-10-09 12:54:00,
2013-10-09 08:59:00,54.9,40.8,30.28,NNE,23,5.4,5.4,59,0.00,,,0.00,WUHU216HW,2013-10-09 12:59:00,
2013-10-09 09:04:00,55.3,41.1,30.28,ENE,68,4.7,5.4,59,0.00,,,0.00,WUHU216HW,2013-10-09 13:04:00,
2013-10-09 09:09:00,55.6,42.4,30.29,NE,45,5.4,5.4,61,0.00,,,0.00,WUHU216HW,2013-10-09 13:09:00,
2013-10-09 09:14:00,56.2,42.5,30.29,North,8,2.6,5.4,60,0.00,,,0.00,WUHU216HW,2013-10-09 13:14:00,
2013-10-09 09:19:00,56.7,43.0,30.29,ENE,58,1.2,5.4,60,0.00,,,0.00,WUHU216HW,2013-10-09 13:19:00,
2013-10-09 09:25:00,57.2,44.4,30.29,North,0,5.4,5.4,62,0.00,,,0.00,WUHU216HW,2013-10-09 13:25:00,
2013-10-09 09:30:00,57.8,44.5,30.29,ENE,68,3.4,5.4,61,0.00,,,0.00,WUHU216HW,2013-10-09 13:30:00,
2013-10-09 09:35:00,58.1,45.2,30.29,NNW,338,8.5,8.5,62,0.00,,,0.00,WUHU216HW,2013-10-09 13:35:00,
2013-10-09 09:40:00,58.5,45.1,30.29,NE,55,4.5,8.5,61,0.00,,,0.00,WUHU216HW,2013-10-09 13:40:00,
2013-10-09 09:45:00,59.2,46.2,30.29,NNE,23,4.7,8.5,62,0.00,,,0.00,WUHU216HW,2013-10-09 13:45:00,
2013-10-09 09:50:00,59.6,46.5,30.29,West,270,2.2,4.7,62,0.00,,,0.00,WUHU216HW,2013-10-09 13:50:00,
2013-10-09 09:55:00,59.8,46.4,30.29,NNW,338,2.5,4.7,61,0.00,,,0.00,WUHU216HW,2013-10-09 13:55:00,
2013-10-09 10:00:00,60.1,47.1,30.29,NNE,23,5.4,5.4,62,0.00,,,0.00,WUHU216HW,2013-10-09 14:00:00,
2013-10-09 10:05:00,60.5,46.2,30.29,ESE,113,5.4,6.5,59,0.00,,,0.00,WUHU216HW,2013-10-09 14:05:00,
2013-10-09 10:10:00,60.7,46.4,30.29,NNW,338,6.3,7.6,59,0.00,,,0.00,WUHU216HW,2013-10-09 14:10:00,
2013-10-09 10:15:00,60.8,46.0,30.29,NNW,338,2.0,7.6,58,0.00,,,0.00,WUHU216HW,2013-10-09 14:15:00,
2013-10-09 10:21:00,61.4,46.5,30.29,North,0,5.8,6.3,58,0.00,,,0.00,WUHU216HW,2013-10-09 14:21:00,
2013-10-09 10:26:00,61.6,47.2,30.29,NNE,23,3.1,5.8,59,0.00,,,0.00,WUHU216HW,2013-10-09 14:26:00,
2013-10-09 10:31:00,62.3,46.4,30.29,NE,45,7.6,10.5,56,0.00,,,0.00,WUHU216HW,2013-10-09 14:31:00,
2013-10-09 10:36:00,62.5,47.0,30.29,NNW,347,3.0,10.5,57,0.00,,,0.00,WUHU216HW,2013-10-09 14:36:00,
2013-10-09 10:41:00,62.8,45.8,30.29,ENE,68,2.9,6.5,54,0.00,,,0.00,WUHU216HW,2013-10-09 14:41:00,
2013-10-09 10:46:00,62.8,45.8,30.29,NE,45,3.8,6.5,54,0.00,,,0.00,WUHU216HW,2013-10-09 14:46:00,
2013-10-09 10:51:00,63.2,45.2,30.29,NNW,338,6.7,9.8,52,0.00,,,0.00,WUHU216HW,2013-10-09 14:51:00,
2013-10-09 10:56:00,63.2,44.7,30.29,NNE,20,4.9,9.8,51,0.00,,,0.00,WUHU216HW,2013-10-09 14:56:00,
2013-10-09 11:01:00,63.9,45.8,30.29,North,2,3.1,6.9,52,0.00,,,0.00,WUHU216HW,2013-10-09 15:01:00,
2013-10-09 11:06:00,64.1,45.0,30.29,NNE,17,3.6,6.5,50,0.00,,,0.00,WUHU216HW,2013-10-09 15:06:00,
2013-10-09 11:11:00,64.1,44.5,30.29,SE,135,6.3,8.3,49,0.00,,,0.00,WUHU216HW,2013-10-09 15:11:00,
2013-10-09 11:17:00,64.8,45.2,30.29,North,2,2.8,8.3,49,0.00,,,0.00,WUHU216HW,2013-10-09 15:17:00,
2013-10-09 11:22:00,65.0,44.7,30.29,NNW,338,1.6,6.3,48,0.00,,,0.00,WUHU216HW,2013-10-09 15:22:00,
2013-10-09 11:27:00,65.2,43.7,30.28,North,0,7.4,12.8,46,0.00,,,0.00,WUHU216HW,2013-10-09 15:27:00,
2013-10-09 11:32:00,65.2,42.6,30.28,NNE,29,4.3,12.8,44,0.00,,,0.00,WUHU216HW,2013-10-09 15:32:00,
2013-10-09 11:37:00,65.5,42.9,30.28,North,0,6.3,8.3,44,0.00,,,0.00,WUHU216HW,2013-10-09 15:37:00,
2013-10-09 11:42:00,65.9,43.8,30.28,North,0,5.4,8.3,45,0.00,,,0.00,WUHU216HW,2013-10-09 15:42:00,
2013-10-09 11:47:00,66.4,43.2,30.28,NE,35,6.1,7.8,43,0.00,,,0.00,WUHU216HW,2013-10-09 15:47:00,
2013-10-09 11:52:00,66.6,43.9,30.28,NNE,23,4.0,8.5,44,0.00,,,0.00,WUHU216HW,2013-10-09 15:52:00,
2013-10-09 11:57:00,66.4,41.9,30.28,North,0,5.4,8.5,41,0.00,,,0.00,WUHU216HW,2013-10-09 15:57:00,
2013-10-09 12:02:00,66.6,43.3,30.27,NE,37,3.8,7.6,43,0.00,,,0.00,WUHU216HW,2013-10-09 16:02:00,
2013-10-09 12:07:00,67.0,43.7,30.28,NE,45,3.4,7.6,43,0.00,,,0.00,WUHU216HW,2013-10-09 16:07:00,
2013-10-09 12:13:00,67.0,42.5,30.27,North,0,3.6,7.6,41,0.00,,,0.00,WUHU216HW,2013-10-09 16:13:00,
2013-10-09 12:18:00,67.3,44.6,30.27,WNW,282,1.8,7.6,44,0.00,,,0.00,WUHU216HW,2013-10-09 16:18:00,
2013-10-09 12:23:00,67.9,45.1,30.27,SW,225,1.8,3.8,44,0.00,,,0.00,WUHU216HW,2013-10-09 16:23:00,
2013-10-09 12:28:00,68.2,44.2,30.27,ENE,74,4.1,4.3,42,0.00,,,0.00,WUHU216HW,2013-10-09 16:28:00,
2013-10-09 12:33:00,68.0,44.7,30.26,NNW,338,3.5,7.6,43,0.00,,,0.00,WUHU216HW,2013-10-09 16:33:00,
2013-10-09 12:38:00,67.5,43.6,30.26,ENE,60,5.3,9.4,42,0.00,,,0.00,WUHU216HW,2013-10-09 16:38:00,
2013-10-09 12:43:00,67.7,43.8,30.26,NNE,23,10.5,10.5,42,0.00,,,0.00,WUHU216HW,2013-10-09 16:43:00,
2013-10-09 12:48:00,68.8,46.4,30.26,NE,47,1.2,10.5,45,0.00,,,0.00,WUHU216HW,2013-10-09 16:48:00,
2013-10-09 12:53:00,69.3,47.5,30.26,ENE,68,1.6,10.5,46,0.00,,,0.00,WUHU216HW,2013-10-09 16:53:00,
2013-10-09 12:58:00,69.5,44.1,30.26,NNW,338,4.0,5.4,40,0.00,,,0.00,WUHU216HW,2013-10-09 16:58:00,
2013-10-09 13:03:00,69.5,46.5,30.26,ENE,77,1.7,5.4,44,0.00,,,0.00,WUHU216HW,2013-10-09 17:03:00,
2013-10-09 13:08:00,69.7,46.7,30.25,SE,135,0.9,5.4,44,0.00,,,0.00,WUHU216HW,2013-10-09 17:08:00,
2013-10-09 13:14:00,70.2,47.8,30.25,NNW,338,4.0,4.0,45,0.00,,,0.00,WUHU216HW,2013-10-09 17:14:00,
2013-10-09 13:19:00,70.0,45.2,30.25,North,7,5.4,7.8,41,0.00,,,0.00,WUHU216HW,2013-10-09 17:19:00,
2013-10-09 13:24:00,70.4,47.4,30.25,ENE,67,1.8,7.8,44,0.00,,,0.00,WUHU216HW,2013-10-09 17:24:00,
2013-10-09 13:29:00,70.7,46.4,30.25,North,352,3.3,4.0,42,0.00,,,0.00,WUHU216HW,2013-10-09 17:29:00,
2013-10-09 13:34:00,70.9,46.0,30.24,North,0,4.7,4.7,41,0.00,,,0.00,WUHU216HW,2013-10-09 17:34:00,
2013-10-09 13:39:00,70.7,46.4,30.24,NE,45,2.5,4.7,42,0.00,,,0.00,WUHU216HW,2013-10-09 17:39:00,
2013-10-09 13:44:00,70.7,47.1,30.24,East,90,3.1,4.7,43,0.00,,,0.00,WUHU216HW,2013-10-09 17:44:00,
2013-10-09 13:49:00,70.9,46.0,30.23,North,0,3.4,4.7,41,0.00,,,0.00,WUHU216HW,2013-10-09 17:49:00,
2013-10-09 13:54:00,70.7,46.4,30.23,NNW,338,1.8,4.7,42,0.00,,,0.00,WUHU216HW,2013-10-09 17:54:00,
2013-10-09 14:00:00,70.9,46.0,30.23,NW,315,3.6,6.9,41,0.00,,,0.00,WUHU216HW,2013-10-09 18:00:00,
2013-10-09 14:12:00,71.3,45.7,30.22,North,0,3.8,3.8,40,0.00,,,0.00,WUHU216HW,2013-10-09 18:12:00,
2013-10-09 14:18:00,71.5,45.9,30.22,ENE,66,4.4,6.0,40,0.00,,,0.00,WUHU216HW,2013-10-09 18:18:00,
2013-10-09 14:23:00,71.5,46.5,30.22,East,88,2.6,6.7,41,0.00,,,0.00,WUHU216HW,2013-10-09 18:23:00,
2013-10-09 14:28:00,71.6,46.1,30.22,NE,45,2.8,9.2,40,0.00,,,0.00,WUHU216HW,2013-10-09 18:28:00,
2013-10-09 14:33:00,71.6,46.1,30.21,NE,53,2.0,9.2,40,0.00,,,0.00,WUHU216HW,2013-10-09 18:33:00,
2013-10-09 14:38:00,72.0,44.9,30.21,NE,45,4.5,9.2,38,0.00,,,0.00,WUHU216HW,2013-10-09 18:38:00,
2013-10-09 14:43:00,72.0,45.6,30.21,NNE,23,3.1,5.4,39,0.00,,,0.00,WUHU216HW,2013-10-09 18:43:00,
2013-10-09 14:48:00,72.2,45.8,30.21,NNE,23,3.8,4.9,39,0.00,,,0.00,WUHU216HW,2013-10-09 18:48:00,
2013-10-09 14:53:00,72.4,47.4,30.21,NNW,338,2.5,4.7,41,0.00,,,0.00,WUHU216HW,2013-10-09 18:53:00,
2013-10-09 14:58:00,72.5,45.4,30.20,NE,45,5.8,5.8,38,0.00,,,0.00,WUHU216HW,2013-10-09 18:58:00,
2013-10-09 15:03:00,72.4,46.7,30.20,North,11,2.0,5.8,40,0.00,,,0.00,WUHU216HW,2013-10-09 19:03:00,
2013-10-09 15:08:00,72.5,45.4,30.20,NNE,29,4.7,6.5,38,0.00,,,0.00,WUHU216HW,2013-10-09 19:08:00,
2013-10-09 15:13:00,72.2,45.1,30.20,NNE,33,3.9,6.7,38,0.00,,,0.00,WUHU216HW,2013-10-09 19:13:00,
2013-10-09 15:19:00,72.5,46.9,30.20,NNE,30,2.0,6.7,40,0.00,,,0.00,WUHU216HW,2013-10-09 19:19:00,
2013-10-09 15:24:00,72.9,47.8,30.20,NE,45,1.1,4.7,41,0.00,,,0.00,WUHU216HW,2013-10-09 19:24:00,
2013-10-09 15:29:00,73.1,45.1,30.20,NNE,29,4.1,6.3,37,0.00,,,0.00,WUHU216HW,2013-10-09 19:29:00,
2013-10-09 15:34:00,72.9,45.7,30.20,NE,45,4.5,6.3,38,0.00,,,0.00,WUHU216HW,2013-10-09 19:34:00,
2013-10-09 15:39:00,72.5,46.2,30.19,NNE,23,2.5,4.9,39,0.00,,,0.00,WUHU216HW,2013-10-09 19:39:00,
2013-10-09 15:44:00,72.7,47.1,30.19,ENE,70,2.4,5.6,40,0.00,,,0.00,WUHU216HW,2013-10-09 19:44:00,
2013-10-09 15:49:00,73.1,48.0,30.19,NNE,20,2.0,5.6,41,0.00,,,0.00,WUHU216HW,2013-10-09 19:49:00,
2013-10-09 15:54:00,73.3,46.8,30.19,NW,315,4.7,4.7,39,0.00,,,0.00,WUHU216HW,2013-10-09 19:54:00,
2013-10-09 15:59:00,72.9,47.3,30.19,NE,45,1.8,5.8,40,0.00,,,0.00,WUHU216HW,2013-10-09 19:59:00,
2013-10-09 16:04:00,73.1,48.0,30.19,SSE,158,1.8,5.8,41,0.00,,,0.00,WUHU216HW,2013-10-09 20:04:00,
2013-10-09 16:09:00,73.1,48.0,30.19,ENE,71,1.2,3.4,41,0.00,,,0.00,WUHU216HW,2013-10-09 20:09:00,
2013-10-09 16:15:00,73.1,46.6,30.19,NNW,338,3.6,4.7,39,0.00,,,0.00,WUHU216HW,2013-10-09 20:15:00,
2013-10-09 16:20:00,73.1,47.3,30.19,NE,45,4.0,4.7,40,0.00,,,0.00,WUHU216HW,2013-10-09 20:20:00,
2013-10-09 16:25:00,72.9,47.3,30.19,ENE,62,1.6,4.0,40,0.00,,,0.00,WUHU216HW,2013-10-09 20:25:00,
2013-10-09 16:30:00,72.7,47.1,30.19,NNE,25,1.9,4.9,40,0.00,,,0.00,WUHU216HW,2013-10-09 20:30:00,
2013-10-09 16:35:00,72.9,47.3,30.19,ESE,116,1.4,4.9,40,0.00,,,0.00,WUHU216HW,2013-10-09 20:35:00,
2013-10-09 16:40:00,72.9,47.8,30.19,ESE,115,0.8,2.7,41,0.00,,,0.00,WUHU216HW,2013-10-09 20:40:00,
2013-10-09 16:45:00,72.4,46.0,30.19,North,0,5.4,5.4,39,0.00,,,0.00,WUHU216HW,2013-10-09 20:45:00,
2013-10-09 16:50:00,72.4,47.4,30.19,ENE,78,2.3,5.4,41,0.00,,,0.00,WUHU216HW,2013-10-09 20:50:00,
2013-10-09 16:55:00,72.2,47.8,30.19,North,0,2.7,3.6,42,0.00,,,0.00,WUHU216HW,2013-10-09 20:55:00,
2013-10-09 17:00:00,72.2,48.3,30.18,East,90,1.8,3.4,43,0.00,,,0.00,WUHU216HW,2013-10-09 21:00:00,
2013-10-09 17:06:00,72.2,47.8,30.19,North,0,1.8,3.4,42,0.00,,,0.00,WUHU216HW,2013-10-09 21:06:00,
2013-10-09 17:11:00,71.8,48.1,30.18,NNE,22,1.2,3.4,43,0.00,,,0.00,WUHU216HW,2013-10-09 21:11:00,
2013-10-09 17:16:00,71.6,46.7,30.19,North,0,2.0,3.8,41,0.00,,,0.00,WUHU216HW,2013-10-09 21:16:00,
2013-10-09 17:21:00,71.5,47.1,30.19,ENE,57,0.9,3.8,42,0.00,,,0.00,WUHU216HW,2013-10-09 21:21:00,
2013-10-09 17:26:00,71.5,47.7,30.18,ENE,65,0.7,3.4,43,0.00,,,0.00,WUHU216HW,2013-10-09 21:26:00,
2013-10-09 17:31:00,71.3,48.2,30.19,SSE,162,1.5,2.5,44,0.00,,,0.00,WUHU216HW,2013-10-09 21:31:00,
2013-10-09 17:36:00,71.1,48.0,30.19,ENE,68,2.2,2.5,44,0.00,,,0.00,WUHU216HW,2013-10-09 21:36:00,
2013-10-09 17:41:00,70.9,47.8,30.19,North,356,0.6,2.9,44,0.00,,,0.00,WUHU216HW,2013-10-09 21:41:00,
2013-10-09 17:46:00,70.6,48.1,30.19,NNE,23,1.1,2.9,45,0.00,,,0.00,WUHU216HW,2013-10-09 21:46:00,
2013-10-09 17:51:00,70.4,47.9,30.19,NNE,23,1.1,1.1,45,0.00,,,0.00,WUHU216HW,2013-10-09 21:51:00,
2013-10-09 17:57:00,69.8,48.1,30.19,ENE,69,1.0,2.2,46,0.00,,,0.00,WUHU216HW,2013-10-09 21:57:00,
2013-10-09 18:02:00,69.5,47.7,30.19,NNE,27,0.9,2.2,46,0.00,,,0.00,WUHU216HW,2013-10-09 22:02:00,
2013-10-09 18:07:00,69.5,48.3,30.18,NNE,23,0.9,1.8,47,0.00,,,0.00,WUHU216HW,2013-10-09 22:07:00,
2013-10-09 18:12:00,68.9,47.8,30.18,ESE,110,0.5,1.1,47,0.00,,,0.00,WUHU216HW,2013-10-09 22:12:00,
2013-10-09 18:17:00,68.8,47.6,30.19,WNW,293,0.0,1.1,47,0.00,,,0.00,WUHU216HW,2013-10-09 22:17:00,
2013-10-09 18:22:00,68.2,47.8,30.19,ENE,72,0.6,1.1,48,0.00,,,0.00,WUHU216HW,2013-10-09 22:22:00,
2013-10-09 18:27:00,67.9,47.4,30.19,NE,52,0.3,1.1,48,0.00,,,0.00,WUHU216HW,2013-10-09 22:27:00,
2013-10-09 18:32:00,67.3,47.5,30.19,SE,135,0.0,0.4,49,0.00,,,0.00,WUHU216HW,2013-10-09 22:32:00,
2013-10-09 18:37:00,66.8,48.2,30.19,SE,135,0.0,0.0,51,0.00,,,0.00,WUHU216HW,2013-10-09 22:37:00,
2013-10-09 18:42:00,66.2,47.6,30.19,SE,135,0.0,0.0,51,0.00,,,0.00,WUHU216HW,2013-10-09 22:42:00,
2013-10-09 18:47:00,65.5,47.9,30.19,SE,135,0.0,0.0,53,0.00,,,0.00,WUHU216HW,2013-10-09 22:47:00,
2013-10-09 18:53:00,64.8,47.2,30.19,SE,135,0.0,0.0,53,0.00,,,0.00,WUHU216HW,2013-10-09 22:53:00,
2013-10-09 18:58:00,64.1,47.0,30.19,SE,135,0.0,0.0,54,0.00,,,0.00,WUHU216HW,2013-10-09 22:58:00,
2013-10-09 19:03:00,63.2,46.6,30.19,SE,135,0.0,0.0,55,0.00,,,0.00,WUHU216HW,2013-10-09 23:03:00,
2013-10-09 19:08:00,62.3,46.8,30.19,SE,135,0.0,0.0,57,0.00,,,0.00,WUHU216HW,2013-10-09 23:08:00,
2013-10-09 19:13:00,61.7,46.4,30.19,SE,135,0.0,0.0,57,0.00,,,0.00,WUHU216HW,2013-10-09 23:13:00,
2013-10-09 19:18:00,61.2,46.4,30.19,SE,135,0.0,0.0,58,0.00,,,0.00,WUHU216HW,2013-10-09 23:18:00,
2013-10-09 19:23:00,60.8,46.5,30.19,SE,135,0.0,0.0,59,0.00,,,0.00,WUHU216HW,2013-10-09 23:23:00,
2013-10-09 19:28:00,60.1,46.3,30.19,SE,135,0.0,0.0,60,0.00,,,0.00,WUHU216HW,2013-10-09 23:28:00,
2013-10-09 19:34:00,59.9,46.1,30.19,SE,135,0.0,0.0,60,0.00,,,0.00,WUHU216HW,2013-10-09 23:34:00,
2013-10-09 19:39:00,59.4,45.5,30.19,SE,135,0.0,0.0,60,0.00,,,0.00,WUHU216HW,2013-10-09 23:39:00,
2013-10-09 19:44:00,59.0,45.6,30.19,SE,135,0.0,0.0,61,0.00,,,0.00,WUHU216HW,2013-10-09 23:44:00,
2013-10-09 19:49:00,58.7,44.8,30.19,North,0,0.0,0.4,60,0.00,,,0.00,WUHU216HW,2013-10-09 23:49:00,
2013-10-09 19:54:00,58.5,45.1,30.19,North,0,0.0,0.4,61,0.00,,,0.00,WUHU216HW,2013-10-09 23:54:00,
2013-10-09 19:59:00,58.1,44.8,30.20,North,0,0.0,0.0,61,0.00,,,0.00,WUHU216HW,2013-10-09 23:59:00,
2013-10-09 20:04:00,57.8,44.5,30.19,North,0,0.4,0.9,61,0.00,,,0.00,WUHU216HW,2013-10-10 00:04:00,
2013-10-09 20:09:00,57.6,44.3,30.20,ENE,71,0.5,1.1,61,0.00,,,0.00,WUHU216HW,2013-10-10 00:09:00,
2013-10-09 20:14:00,57.8,44.5,30.20,SE,135,0.4,1.1,61,0.00,,,0.00,WUHU216HW,2013-10-10 00:14:00,
2013-10-09 20:19:00,57.6,44.3,30.20,SE,135,0.0,0.9,61,0.00,,,0.00,WUHU216HW,2013-10-10 00:19:00,
2013-10-09 20:25:00,57.2,44.4,30.20,SE,135,0.0,0.0,62,0.00,,,0.00,WUHU216HW,2013-10-10 00:25:00,
2013-10-09 20:30:00,57.2,44.4,30.20,SE,135,0.0,0.0,62,0.00,,,0.00,WUHU216HW,2013-10-10 00:30:00,
2013-10-09 20:31:00,57.2,44.4,30.20,SE,135,0.0,0.0,62,0.00,,,0.00,WUHU216HW,2013-10-10 00:31:00,
2013-10-09 20:35:00,57.2,44.4,30.20,SE,135,0.0,0.0,62,0.00,,,0.00,WUHU216HW,2013-10-10 00:35:00,
2013-10-09 20:40:00,57.2,44.4,30.20,SE,135,0.0,0.0,62,0.00,,,0.00,WUHU216HW,2013-10-10 00:40:00,
2013-10-09 21:01:00,56.2,43.3,30.20,North,0,0.0,0.0,62,0.00,,,0.00,WUHU216HW,2013-10-10 01:01:00,
2013-10-09 21:06:00,56.2,43.3,30.20,North,0,0.0,1.8,62,0.00,,,0.00,WUHU216HW,2013-10-10 01:06:00,
2013-10-09 21:11:00,56.2,43.3,30.20,North,0,0.0,1.8,62,0.00,,,0.00,WUHU216HW,2013-10-10 01:11:00,
2013-10-09 21:16:00,56.0,43.1,30.20,North,0,0.0,0.0,62,0.00,,,0.00,WUHU216HW,2013-10-10 01:16:00,
2013-10-09 21:21:00,55.8,42.9,30.20,North,0,0.0,0.0,62,0.00,,,0.00,WUHU216HW,2013-10-10 01:21:00,
2013-10-09 21:26:00,55.4,42.6,30.20,North,0,0.0,0.0,62,0.00,,,0.00,WUHU216HW,2013-10-10 01:26:00,
2013-10-09 21:31:00,55.3,42.4,30.20,North,0,0.0,0.0,62,0.00,,,0.00,WUHU216HW,2013-10-10 01:31:00,
2013-10-09 21:36:00,55.1,42.3,30.20,North,0,0.0,0.0,62,0.00,,,0.00,WUHU216HW,2013-10-10 01:36:00,
2013-10-09 21:42:00,54.7,42.0,30.21,North,0,0.0,0.0,62,0.00,,,0.00,WUHU216HW,2013-10-10 01:42:00,
2013-10-09 21:47:00,54.5,41.3,30.21,NNW,338,0.0,0.0,61,0.00,,,0.00,WUHU216HW,2013-10-10 01:47:00,
2013-10-09 21:52:00,54.4,41.2,30.21,NNW,338,0.0,0.0,61,0.00,,,0.00,WUHU216HW,2013-10-10 01:52:00,
2013-10-09 21:57:00,54.2,41.1,30.21,WSW,248,0.0,0.0,61,0.00,,,0.00,WUHU216HW,2013-10-10 01:57:00,
2013-10-09 22:02:00,54.0,40.9,30.21,West,270,0.0,0.0,61,0.00,,,0.00,WUHU216HW,2013-10-10 02:02:00,
2013-10-09 22:07:00,54.0,40.9,30.21,West,270,0.0,0.0,61,0.00,,,0.00,WUHU216HW,2013-10-10 02:07:00,
2013-10-09 22:12:00,53.8,40.3,30.21,NNW,338,0.0,0.0,60,0.00,,,0.00,WUHU216HW,2013-10-10 02:12:00,
2013-10-09 22:17:00,53.8,39.9,30.21,NNW,338,0.0,0.0,59,0.00,,,0.00,WUHU216HW,2013-10-10 02:17:00,
2013-10-09 22:22:00,53.6,39.7,30.21,NNW,338,0.0,0.0,59,0.00,,,0.00,WUHU216HW,2013-10-10 02:22:00,
2013-10-09 22:28:00,53.6,39.7,30.21,SE,127,0.3,0.4,59,0.00,,,0.00,WUHU216HW,2013-10-10 02:28:00,
2013-10-09 22:30:00,53.6,39.3,30.21,NNE,23,0.2,0.9,58,0.00,,,0.00,WUHU216HW,2013-10-10 02:30:00,
2013-10-09 22:33:00,53.6,39.3,30.21,NNE,23,0.2,0.9,58,0.00,,,0.00,WUHU216HW,2013-10-10 02:33:00,
2013-10-09 22:38:00,53.6,39.3,30.21,NNE,23,0.2,0.9,58,0.00,,,0.00,WUHU216HW,2013-10-10 02:38:00,
2013-10-09 23:00:00,53.6,39.3,30.21,NNW,338,0.0,0.0,58,0.00,,,0.00,WUHU216HW,2013-10-10 03:00:00,
2013-10-09 23:01:00,53.6,39.3,30.21,NNW,338,0.0,0.0,58,0.00,,,0.00,WUHU216HW,2013-10-10 03:01:00,
2013-10-09 23:07:00,53.6,39.3,30.21,NNW,338,0.0,0.0,58,0.00,,,0.00,WUHU216HW,2013-10-10 03:07:00,